Time;durP1;ratioP1;P1;durP2;ratioP2;P2;SDS_P1;SDS_P2;PMS_P1;PMS_P2;Temp;Humidity;BMP_temperature;BMP_pressure;BME280_temperature;BME280_humidity;BME280_pressure;Samples;Min_cycle;Max_cycle;Signal;HPM_P1;HPM_P2
2021/09/30 00:01:56;;;;;;;7.22;5.63;;;19.30;99.90;;;;;;5010990;28;20058;-76
2021/09/30 00:04:22;;;;;;;6.38;5.28;;;19.30;99.90;;;;;;5011377;28;20108;-75
2021/09/30 00:06:47;;;;;;;6.13;4.97;;;19.30;99.90;;;;;;5009984;28;20438;-76
2021/09/30 00:09:14;;;;;;;4.95;4.47;;;19.40;99.90;;;;;;5026756;28;20026;-76
2021/09/30 00:11:44;;;;;;;7.60;4.53;;;19.50;99.90;;;;;;5026623;28;20022;-76
2021/09/30 00:14:41;;;;;;;4.90;4.35;;;19.50;99.90;;;;;;5026647;28;20061;-76
2021/09/30 00:36:02;;;;;;;4.05;3.65;;;19.20;99.90;;;;;;5015209;28;20040;-75
2021/09/30 02:39:43;;;;;;;5.72;3.50;;;18.40;99.90;;;;;;5012908;28;20097;-76
2021/09/30 02:58:55;;;;;;;4.80;3.25;;;18.40;99.90;;;;;;4992985;28;20459;-76
2021/09/30 03:01:24;;;;;;;3.42;3.13;;;18.30;99.90;;;;;;4992868;28;20026;-76
2021/09/30 03:03:53;;;;;;;5.60;3.63;;;18.30;99.90;;;;;;4999632;28;20060;-76
2021/09/30 03:06:20;;;;;;;4.10;3.72;;;18.30;99.90;;;;;;5012300;28;20533;-76
2021/09/30 03:08:50;;;;;;;3.47;2.80;;;18.30;99.90;;;;;;5012153;28;20168;-76
2021/09/30 03:11:19;;;;;;;3.53;3.22;;;18.20;99.90;;;;;;5012263;28;20064;-76
2021/09/30 03:13:47;;;;;;;3.53;3.15;;;18.30;99.90;;;;;;5012210;28;20160;-76
2021/09/30 03:16:22;;;;;;;3.90;2.70;;;18.30;99.90;;;;;;5012338;28;20022;-76
2021/09/30 03:18:58;;;;;;;2.97;2.67;;;18.30;99.90;;;;;;5012398;28;20397;-76
2021/09/30 03:24:12;;;;;;;3.95;3.00;;;18.40;99.90;;;;;;5012046;28;20064;-78
2021/09/30 03:26:39;;;;;;;3.13;2.92;;;18.40;99.90;;;;;;5012034;28;20411;-78
2021/09/30 03:29:07;;;;;;;3.40;3.10;;;18.30;99.90;;;;;;5011865;28;20544;-78
2021/09/30 03:31:33;;;;;;;3.00;2.70;;;18.30;99.90;;;;;;5010589;28;20030;-78
2021/09/30 03:34:01;;;;;;;3.25;2.85;;;18.30;99.90;;;;;;5027007;28;20096;-78
2021/09/30 03:36:27;;;;;;;3.10;2.80;;;18.30;99.90;;;;;;5011799;28;20468;-78
2021/09/30 03:38:53;;;;;;;3.45;3.25;;;18.30;99.90;;;;;;5011822;28;20450;-78
2021/09/30 03:41:19;;;;;;;4.82;3.00;;;18.20;99.90;;;;;;5011697;28;20022;-78
2021/09/30 03:43:45;;;;;;;3.15;2.95;;;18.30;99.90;;;;;;5011617;28;20034;-78
2021/09/30 03:46:10;;;;;;;3.28;2.72;;;18.30;99.90;;;;;;5011880;28;20026;-78
2021/09/30 03:48:36;;;;;;;4.47;2.75;;;18.30;99.90;;;;;;5011669;28;20037;-78
2021/09/30 03:51:11;;;;;;;4.15;2.67;;;18.30;99.90;;;;;;5011651;28;20029;-78
2021/09/30 03:56:10;;;;;;;3.67;3.13;;;18.30;99.90;;;;;;5017982;28;20026;-78
2021/09/30 04:01:21;;;;;;;3.10;2.70;;;18.10;99.90;;;;;;5018072;28;20438;-78
2021/09/30 04:03:46;;;;;;;3.10;2.85;;;18.10;99.90;;;;;;5017994;28;20084;-78
2021/09/30 04:06:12;;;;;;;3.28;3.03;;;18.10;99.90;;;;;;5018202;28;20034;-78
2021/09/30 04:08:40;;;;;;;3.63;3.15;;;18.10;99.90;;;;;;5017988;28;20032;-78
2021/09/30 04:11:06;;;;;;;4.03;2.80;;;18.10;99.90;;;;;;5017940;28;20018;-78
2021/09/30 04:13:31;;;;;;;5.60;3.13;;;18.10;99.90;;;;;;5017970;28;20484;-78
2021/09/30 04:15:57;;;;;;;3.72;2.40;;;18.10;99.90;;;;;;5017843;28;20034;-78
2021/09/30 04:18:23;;;;;;;2.72;2.53;;;18.20;99.90;;;;;;5018104;28;20342;-78
2021/09/30 04:20:48;;;;;;;3.92;3.50;;;18.10;99.90;;;;;;5017826;28;20372;-78
2021/09/30 04:23:14;;;;;;;5.65;2.53;;;18.10;99.90;;;;;;5018089;28;20053;-78
2021/09/30 04:25:40;;;;;;;2.75;2.45;;;18.10;99.90;;;;;;5016645;28;20037;-78
2021/09/30 04:28:06;;;;;;;2.72;2.53;;;18.10;99.90;;;;;;5017945;28;20022;-78
2021/09/30 04:30:31;;;;;;;3.25;2.90;;;18.10;99.90;;;;;;5017982;28;20021;-78
2021/09/30 04:32:57;;;;;;;4.35;3.08;;;18.10;99.90;;;;;;5017906;28;20038;-78
2021/09/30 04:35:23;;;;;;;3.35;2.53;;;18.10;99.90;;;;;;5017773;28;20468;-78
2021/09/30 04:37:49;;;;;;;8.30;3.00;;;18.10;99.90;;;;;;5018017;28;20022;-78
2021/09/30 04:40:15;;;;;;;3.10;2.63;;;18.10;99.90;;;;;;5016124;28;20396;-78
2021/09/30 04:42:42;;;;;;;3.10;2.80;;;18.00;99.90;;;;;;4997226;28;20026;-78
2021/09/30 04:45:08;;;;;;;5.28;2.75;;;18.00;99.90;;;;;;4998930;28;20026;-78
2021/09/30 04:47:34;;;;;;;2.95;2.75;;;18.00;99.90;;;;;;4998022;28;20107;-78
2021/09/30 04:49:59;;;;;;;3.45;3.15;;;18.00;99.90;;;;;;4995473;28;20054;-78
2021/09/30 04:52:25;;;;;;;2.75;2.47;;;18.00;99.90;;;;;;4996250;28;20018;-78
2021/09/30 04:54:51;;;;;;;5.22;2.97;;;18.00;99.90;;;;;;5004991;28;20128;-78
2021/09/30 04:57:17;;;;;;;4.65;2.75;;;18.00;99.90;;;;;;5013780;28;20022;-78
2021/09/30 04:59:43;;;;;;;8.75;2.80;;;18.00;99.90;;;;;;5015252;28;20061;-77
2021/09/30 05:02:09;;;;;;;2.70;2.50;;;18.00;99.90;;;;;;5015678;28;20053;-77
2021/09/30 05:04:34;;;;;;;5.28;2.80;;;18.00;99.90;;;;;;5016307;28;20361;-77
2021/09/30 05:07:00;;;;;;;3.00;2.70;;;18.00;99.90;;;;;;5013318;28;20113;-77
2021/09/30 05:09:28;;;;;;;3.22;2.70;;;17.90;99.90;;;;;;5014393;28;20038;-77
2021/09/30 05:11:57;;;;;;;3.20;2.42;;;17.90;99.90;;;;;;5013146;28;20029;-77
2021/09/30 05:14:23;;;;;;;5.07;2.70;;;17.90;99.90;;;;;;5011767;28;20523;-77
2021/09/30 05:16:51;;;;;;;7.07;3.22;;;17.90;99.90;;;;;;5014250;28;20473;-77
2021/09/30 05:19:17;;;;;;;2.83;2.55;;;17.90;99.90;;;;;;5014277;28;20025;-77
2021/09/30 05:21:43;;;;;;;2.63;2.42;;;18.00;99.90;;;;;;5014126;28;20030;-77
2021/09/30 05:24:08;;;;;;;3.70;2.80;;;18.00;99.90;;;;;;5014121;28;20120;-77
2021/09/30 05:26:34;;;;;;;4.07;2.95;;;18.00;99.90;;;;;;5013606;28;20018;-77
2021/09/30 05:29:03;;;;;;;3.22;2.92;;;17.90;99.90;;;;;;5013379;28;20427;-77
2021/09/30 05:31:30;;;;;;;2.58;2.38;;;17.90;99.90;;;;;;5013559;28;20037;-77
2021/09/30 05:33:56;;;;;;;4.95;2.80;;;17.90;99.90;;;;;;5014065;28;20060;-77
2021/09/30 05:36:22;;;;;;;4.10;3.05;;;17.80;99.90;;;;;;5012781;28;20026;-77
2021/09/30 05:38:49;;;;;;;4.28;3.72;;;17.80;99.90;;;;;;5013878;28;20391;-77
2021/09/30 05:41:15;;;;;;;3.53;3.22;;;17.90;99.90;;;;;;5013729;28;20056;-77
2021/09/30 05:43:46;;;;;;;4.00;3.40;;;17.90;99.90;;;;;;5012589;28;20030;-77
2021/09/30 05:46:15;;;;;;;3.28;2.97;;;17.90;99.90;;;;;;5013856;28;20022;-77
2021/09/30 05:48:40;;;;;;;3.30;2.95;;;17.90;99.90;;;;;;5012418;28;20415;-77
2021/09/30 05:51:07;;;;;;;3.03;2.83;;;17.90;99.90;;;;;;5013139;28;20022;-77
2021/09/30 05:53:32;;;;;;;5.85;3.58;;;18.00;99.90;;;;;;5013449;28;20022;-76
2021/09/30 05:55:58;;;;;;;3.40;3.10;;;18.00;99.90;;;;;;5013012;28;20033;-77
2021/09/30 05:58:25;;;;;;;4.47;2.80;;;18.00;99.90;;;;;;5013584;28;20040;-78
2021/09/30 06:14:09;;;;;;;5.47;3.08;;;18.10;99.90;;;;;;5014677;28;20056;-78
2021/09/30 06:16:44;;;;;;;6.40;2.90;;;18.10;99.90;;;;;;5012812;28;20022;-78
2021/09/30 06:19:10;;;;;;;5.47;3.33;;;18.10;99.90;;;;;;5013169;28;20022;-78
2021/09/30 06:21:36;;;;;;;4.32;3.35;;;18.10;99.90;;;;;;5013144;28;20048;-78
2021/09/30 06:24:01;;;;;;;3.58;3.00;;;18.10;99.90;;;;;;5013129;28;20021;-78
2021/09/30 06:26:28;;;;;;;4.35;2.95;;;18.10;99.90;;;;;;5013096;28;20022;-78
2021/09/30 06:28:54;;;;;;;3.50;3.20;;;18.10;99.90;;;;;;5012884;28;20491;-78
2021/09/30 06:31:20;;;;;;;3.20;2.90;;;18.10;99.90;;;;;;5013880;28;20053;-78
2021/09/30 06:33:46;;;;;;;4.05;3.70;;;18.10;99.90;;;;;;5013985;28;20115;-78
2021/09/30 06:36:11;;;;;;;5.50;3.40;;;18.10;99.90;;;;;;5013129;28;20030;-78
2021/09/30 06:38:37;;;;;;;3.45;3.15;;;18.10;99.90;;;;;;5013240;28;20113;-78
2021/09/30 06:41:03;;;;;;;6.40;3.22;;;18.20;99.90;;;;;;5013826;28;20030;-78
2021/09/30 06:43:29;;;;;;;6.13;3.53;;;18.20;99.90;;;;;;5001566;28;20034;-78
2021/09/30 06:45:55;;;;;;;3.90;3.00;;;18.30;99.90;;;;;;4994618;28;20027;-78
2021/09/30 06:48:21;;;;;;;5.05;3.45;;;18.30;99.90;;;;;;4994334;28;20064;-78
2021/09/30 06:50:46;;;;;;;4.93;3.17;;;18.40;99.90;;;;;;4994315;28;20064;-75
2021/09/30 06:53:13;;;;;;;7.00;3.38;;;18.40;99.90;;;;;;4994420;28;20050;-75
2021/09/30 06:55:42;;;;;;;4.20;3.80;;;18.50;99.90;;;;;;5009459;28;20022;-77
2021/09/30 06:58:10;;;;;;;5.85;3.75;;;18.60;99.90;;;;;;4994367;28;20476;-77
2021/09/30 07:00:38;;;;;;;5.13;4.63;;;18.60;99.90;;;;;;4994370;28;20025;-77
2021/09/30 07:03:04;;;;;;;7.20;4.38;;;18.60;99.90;;;;;;4994542;28;20038;-78
2021/09/30 07:05:31;;;;;;;10.60;4.40;;;18.70;99.90;;;;;;5013311;28;20026;-78
2021/09/30 07:07:58;;;;;;;7.72;3.80;;;18.80;99.90;;;;;;5028897;28;20377;-77
2021/09/30 07:10:24;;;;;;;9.93;4.07;;;18.80;99.90;;;;;;5013376;28;20026;-76
2021/09/30 07:12:50;;;;;;;4.45;3.47;;;18.80;99.90;;;;;;5013136;28;20040;-77
2021/09/30 07:15:15;;;;;;;4.38;3.97;;;18.90;99.90;;;;;;5012945;28;20042;-76
2021/09/30 07:17:41;;;;;;;7.85;3.63;;;18.90;99.90;;;;;;5013116;28;20105;-76
2021/09/30 07:20:07;;;;;;;10.00;3.78;;;18.90;99.90;;;;;;5013196;28;20026;-77
2021/09/30 07:22:33;;;;;;;7.45;3.75;;;19.00;99.90;;;;;;5013098;28;20030;-76
2021/09/30 07:24:59;;;;;;;4.78;3.67;;;19.00;99.90;;;;;;5013542;28;20064;-77
2021/09/30 07:27:25;;;;;;;5.80;3.80;;;19.00;99.90;;;;;;5011852;28;20033;-77
2021/09/30 07:29:51;;;;;;;4.20;3.53;;;19.10;99.90;;;;;;5012272;28;20057;-76
2021/09/30 07:32:17;;;;;;;4.30;3.38;;;19.10;99.90;;;;;;5012962;28;20479;-76
2021/09/30 07:34:43;;;;;;;3.15;2.88;;;19.10;99.90;;;;;;5011775;28;20021;-76
2021/09/30 07:37:09;;;;;;;4.50;3.55;;;19.10;99.90;;;;;;5011908;28;20376;-77
2021/09/30 07:39:35;;;;;;;6.97;3.90;;;19.20;99.90;;;;;;5011370;28;20029;-77
2021/09/30 07:42:01;;;;;;;3.88;3.47;;;19.30;99.90;;;;;;5010362;28;20113;-77
2021/09/30 07:44:27;;;;;;;3.28;3.00;;;19.30;99.90;;;;;;5011757;28;20177;-77
2021/09/30 07:46:54;;;;;;;4.50;3.67;;;19.40;99.90;;;;;;5011404;28;20459;-77
2021/09/30 07:49:20;;;;;;;5.32;3.50;;;19.50;99.90;;;;;;5011125;28;20117;-77
2021/09/30 07:51:46;;;;;;;3.47;3.17;;;19.50;99.90;;;;;;5011879;28;20022;-77
2021/09/30 07:54:14;;;;;;;4.10;3.38;;;19.50;99.90;;;;;;5011775;28;20033;-77
2021/09/30 07:56:41;;;;;;;4.68;3.55;;;19.60;99.90;;;;;;5011891;28;20022;-77
2021/09/30 07:59:07;;;;;;;4.55;3.70;;;19.60;99.90;;;;;;5012085;28;20026;-77
2021/09/30 08:01:33;;;;;;;4.18;3.28;;;19.70;99.90;;;;;;5011746;28;20411;-77
2021/09/30 08:04:00;;;;;;;4.07;3.67;;;19.70;99.90;;;;;;5026773;28;20277;-78
2021/09/30 08:06:26;;;;;;;4.30;3.53;;;19.70;99.90;;;;;;5011765;28;20029;-78
2021/09/30 08:08:52;;;;;;;3.35;3.05;;;19.80;99.90;;;;;;5011642;28;20033;-78
2021/09/30 08:11:18;;;;;;;3.63;3.33;;;19.80;99.90;;;;;;5011459;28;20102;-77
2021/09/30 08:13:44;;;;;;;4.07;3.22;;;19.90;99.90;;;;;;5011586;28;20077;-78
2021/09/30 08:16:10;;;;;;;6.72;2.60;;;19.90;99.90;;;;;;5011621;28;20053;-78
2021/09/30 08:18:35;;;;;;;4.25;2.88;;;19.90;99.90;;;;;;5011546;28;20026;-78
2021/09/30 08:21:01;;;;;;;2.97;2.67;;;20.00;99.90;;;;;;5011781;28;20030;-77
2021/09/30 08:23:27;;;;;;;6.70;3.03;;;20.10;99.90;;;;;;5011510;28;20034;-77
2021/09/30 08:25:53;;;;;;;3.60;3.00;;;20.10;99.90;;;;;;5011482;28;20026;-77
2021/09/30 08:28:20;;;;;;;2.88;2.67;;;20.10;99.90;;;;;;5011548;28;20045;-77
2021/09/30 08:30:47;;;;;;;6.80;4.13;;;20.20;99.90;;;;;;5011299;28;20018;-77
2021/09/30 08:33:13;;;;;;;8.25;5.47;;;20.20;99.90;;;;;;5011494;28;20105;-77
2021/09/30 08:35:39;;;;;;;12.55;6.32;;;20.30;99.90;;;;;;5011630;28;20097;-77
2021/09/30 08:38:06;;;;;;;11.68;5.82;;;20.30;99.90;;;;;;5011416;28;20030;-77
2021/09/30 08:40:33;;;;;;;8.48;3.40;;;20.30;99.90;;;;;;5012872;28;20352;-77
2021/09/30 08:42:59;;;;;;;5.03;3.13;;;20.40;99.90;;;;;;5013382;28;20388;-78
2021/09/30 08:45:25;;;;;;;6.10;3.40;;;20.40;99.90;;;;;;4994711;28;20037;-77
2021/09/30 08:48:09;;;;;;;3.00;2.70;;;20.50;99.90;;;;;;4995244;28;20018;-77
2021/09/30 08:50:38;;;;;;;2.80;2.35;;;20.60;99.90;;;;;;4994168;28;20435;-77
2021/09/30 08:53:06;;;;;;;3.80;2.67;;;20.60;99.90;;;;;;4995350;28;20011;-78
2021/09/30 08:55:32;;;;;;;2.75;2.47;;;20.60;99.90;;;;;;4995091;28;20020;-77
2021/09/30 08:58:03;;;;;;;3.38;2.03;;;20.70;99.90;;;;;;4995241;28;20109;-77
2021/09/30 09:00:30;;;;;;;2.40;2.10;;;20.70;99.90;;;;;;4995210;28;20033;-77
2021/09/30 09:02:56;;;;;;;3.97;2.70;;;20.60;99.90;;;;;;4995093;28;20032;-78
2021/09/30 09:05:23;;;;;;;2.53;1.75;;;20.60;99.90;;;;;;5014088;28;20026;-77
2021/09/30 09:07:54;;;;;;;2.20;2.10;;;20.70;99.90;;;;;;5014567;28;20088;-78
2021/09/30 09:10:22;;;;;;;1.80;1.70;;;20.70;99.90;;;;;;5014503;28;20029;-78
2021/09/30 09:13:02;;;;;;;3.05;2.08;;;20.70;99.90;;;;;;5014558;28;20492;-78
2021/09/30 09:15:41;;;;;;;1.42;1.33;;;20.80;99.90;;;;;;5014495;28;20049;-74
2021/09/30 09:18:35;;;;;;;8.02;1.80;;;20.80;99.90;;;;;;5014310;28;20172;-77
2021/09/30 09:21:10;;;;;;;1.92;1.27;;;20.90;99.90;;;;;;5014090;28;20391;-77
2021/09/30 09:23:53;;;;;;;3.45;2.30;;;20.90;99.90;;;;;;5014438;28;20468;-77
2021/09/30 09:26:34;;;;;;;2.28;1.67;;;21.00;99.90;;;;;;5027093;28;20058;-78
2021/09/30 09:29:12;;;;;;;1.13;1.13;;;21.10;99.90;;;;;;5008555;28;20029;-78
2021/09/30 09:31:49;;;;;;;1.00;1.00;;;21.20;99.90;;;;;;5009687;28;20517;-77
2021/09/30 09:34:38;;;;;;;0.68;0.68;;;21.30;99.90;;;;;;4998013;28;20026;-78
2021/09/30 09:37:34;;;;;;;0.60;0.60;;;21.40;96.90;;;;;;5005809;28;20030;-77
2021/09/30 09:40:16;;;;;;;0.50;0.50;;;21.40;98.40;;;;;;5005436;28;20049;-77
2021/09/30 09:42:42;;;;;;;;;;;21.50;99.20;;;;;;4990448;28;20376;-77
2021/09/30 09:45:13;;;;;;;0.90;0.82;;;21.50;98.50;;;;;;5005025;28;19996;-77
2021/09/30 09:47:42;;;;;;;1.30;1.20;;;21.50;98.80;;;;;;4990444;28;20494;-77
2021/09/30 09:50:11;;;;;;;1.00;1.00;;;21.60;97.90;;;;;;4991185;28;20057;-76
2021/09/30 09:52:51;;;;;;;0.47;0.47;;;21.60;97.10;;;;;;5024533;28;20461;-77
2021/09/30 09:55:24;;;;;;;0.90;0.90;;;21.70;97.50;;;;;;5009115;28;20022;-76
2021/09/30 09:58:07;;;;;;;0.50;0.50;;;21.70;97.20;;;;;;5016612;28;20041;-77
2021/09/30 10:00:38;;;;;;;0.60;0.60;;;21.90;97.70;;;;;;4997349;28;20045;-77
2021/09/30 10:03:17;;;;;;;0.73;0.50;;;21.90;97.40;;;;;;5008957;28;20026;-73
2021/09/30 10:05:44;;;;;;;0.77;0.77;;;22.00;97.00;;;;;;5008757;28;20380;-74
2021/09/30 10:08:10;;;;;;;0.63;0.63;;;21.90;96.40;;;;;;5010239;28;20048;-77
2021/09/30 10:10:37;;;;;;;2.00;0.65;;;21.90;95.50;;;;;;5009720;28;20018;-77
2021/09/30 10:13:04;;;;;;;0.60;0.60;;;22.00;95.60;;;;;;5001368;28;20056;-77
2021/09/30 10:15:31;;;;;;;0.40;0.40;;;22.00;96.00;;;;;;4997942;28;20401;-77
2021/09/30 10:17:58;;;;;;;0.52;0.52;;;22.10;94.90;;;;;;4997849;28;20084;-77
2021/09/30 10:20:25;;;;;;;0.70;0.70;;;22.00;94.00;;;;;;5003901;28;20034;-74
2021/09/30 10:22:52;;;;;;;0.70;0.70;;;22.00;94.40;;;;;;5010803;28;20025;-74
2021/09/30 10:25:18;;;;;;;0.60;0.60;;;22.00;95.80;;;;;;5010286;28;20365;-74
2021/09/30 10:27:53;;;;;;;0.60;0.60;;;22.00;94.80;;;;;;5011580;28;20037;-74
2021/09/30 10:30:54;;;;;;;0.50;0.50;;;22.00;93.90;;;;;;5011489;28;20112;-74
2021/09/30 10:33:40;;;;;;;0.50;0.50;;;22.10;94.80;;;;;;4968959;28;20031;-74
2021/09/30 10:36:44;;;;;;;0.55;0.55;;;22.20;93.00;;;;;;4991506;28;20045;-74
2021/09/30 10:39:23;;;;;;;1.20;0.50;;;22.30;92.30;;;;;;5006206;28;20030;-77
2021/09/30 10:41:50;;;;;;;0.45;0.45;;;22.40;93.50;;;;;;4990744;28;20039;-77
2021/09/30 10:44:22;;;;;;;0.60;0.60;;;22.70;92.20;;;;;;4991102;28;20031;-74
2021/09/30 10:46:57;;;;;;;0.82;0.82;;;22.70;90.50;;;;;;5002141;28;20057;-74
2021/09/30 10:49:47;;;;;;;0.55;0.55;;;22.70;91.90;;;;;;4991357;28;20072;-74
2021/09/30 10:52:13;;;;;;;0.68;0.68;;;22.80;91.30;;;;;;4990633;28;20023;-74
2021/09/30 10:54:47;;;;;;;0.40;0.40;;;23.00;91.10;;;;;;4991165;28;20661;-74
2021/09/30 10:57:36;;;;;;;0.70;0.70;;;23.00;90.60;;;;;;4991075;28;20052;-74
2021/09/30 11:00:17;;;;;;;1.15;1.05;;;23.00;89.50;;;;;;4993276;28;20033;-77
2021/09/30 11:03:01;;;;;;;0.70;0.63;;;23.00;91.30;;;;;;4999037;28;20045;-74
2021/09/30 11:05:37;;;;;;;0.57;0.57;;;23.10;92.70;;;;;;4991657;28;20094;-74
2021/09/30 11:08:24;;;;;;;0.70;0.70;;;23.20;92.90;;;;;;5016523;28;20552;-77
2021/09/30 11:11:06;;;;;;;1.02;0.93;;;23.20;90.40;;;;;;5012824;28;20353;-77
2021/09/30 11:13:37;;;;;;;0.60;0.50;;;23.10;90.80;;;;;;4998937;28;20049;-77
2021/09/30 11:16:06;;;;;;;0.63;0.63;;;23.00;90.40;;;;;;5016551;28;20033;-77
2021/09/30 11:19:01;;;;;;;0.70;0.70;;;22.90;91.50;;;;;;5004132;28;20023;-76
2021/09/30 11:23:57;;;;;;;1.25;0.90;;;22.90;91.20;;;;;;5005705;28;20030;-77
2021/09/30 11:26:24;;;;;;;0.93;0.93;;;23.00;91.50;;;;;;5010172;28;20037;-77
2021/09/30 11:28:53;;;;;;;0.73;0.73;;;22.90;91.40;;;;;;5010390;28;20022;-77
2021/09/30 11:31:28;;;;;;;0.60;0.60;;;22.90;92.30;;;;;;5009994;28;20563;-77
2021/09/30 11:33:56;;;;;;;1.02;0.75;;;22.70;90.40;;;;;;5009955;28;20033;-75
2021/09/30 11:36:30;;;;;;;0.50;0.50;;;22.70;91.20;;;;;;5008586;28;20029;-74
2021/09/30 11:38:57;;;;;;;3.60;0.80;;;22.60;91.00;;;;;;5025369;28;20496;-74
2021/09/30 11:41:33;;;;;;;0.68;0.68;;;22.60;91.50;;;;;;5005379;28;20029;-75
2021/09/30 11:43:59;;;;;;;0.63;0.63;;;22.70;92.20;;;;;;4989714;28;20046;-74
2021/09/30 11:46:28;;;;;;;0.80;0.80;;;22.80;92.00;;;;;;5009462;28;20080;-74
2021/09/30 11:48:58;;;;;;;0.68;0.63;;;22.70;90.70;;;;;;5009982;28;20034;-74
2021/09/30 11:51:41;;;;;;;0.77;0.77;;;22.90;90.40;;;;;;5024743;28;20022;-74
2021/09/30 11:54:10;;;;;;;2.38;1.52;;;22.80;90.50;;;;;;5010029;28;20026;-74
2021/09/30 11:56:56;;;;;;;0.63;0.63;;;22.80;91.40;;;;;;5009184;28;20024;-74
2021/09/30 11:59:26;;;;;;;0.80;0.80;;;22.80;89.10;;;;;;5009872;28;20231;-74
2021/09/30 12:01:57;;;;;;;2.25;0.60;;;22.90;89.70;;;;;;5009457;28;20034;-74
2021/09/30 12:04:29;;;;;;;0.60;0.60;;;23.00;90.10;;;;;;5013463;28;20030;-73
2021/09/30 12:06:55;;;;;;;;;;;23.10;90.30;;;;;;4989966;28;20354;-74
2021/09/30 12:09:21;;;;;;;0.47;0.47;;;23.20;89.70;;;;;;4989743;28;19910;-74
2021/09/30 12:12:02;;;;;;;0.80;0.80;;;23.30;89.50;;;;;;4989833;28;20500;-74
2021/09/30 12:14:48;;;;;;;0.90;0.50;;;23.40;88.10;;;;;;4989665;28;20492;-74
2021/09/30 12:17:19;;;;;;;0.90;0.90;;;23.30;88.70;;;;;;4993488;28;20524;-74
2021/09/30 12:19:51;;;;;;;0.60;0.60;;;23.30;87.00;;;;;;4993614;28;20109;-74
2021/09/30 12:22:17;;;;;;;0.82;0.63;;;23.40;89.30;;;;;;4993436;28;20046;-75
2021/09/30 12:24:51;;;;;;;0.70;0.70;;;23.40;90.60;;;;;;4993511;28;20049;-74
2021/09/30 12:27:21;;;;;;;0.55;0.52;;;23.50;89.00;;;;;;4992905;28;20042;-74
2021/09/30 12:29:53;;;;;;;0.93;0.80;;;23.50;88.90;;;;;;4992773;28;20026;-74
2021/09/30 12:32:27;;;;;;;0.98;0.98;;;23.60;90.50;;;;;;4993096;28;20092;-74
2021/09/30 12:35:03;;;;;;;0.80;0.80;;;23.70;87.50;;;;;;5008900;28;20020;-74
2021/09/30 12:37:31;;;;;;;0.70;0.70;;;23.70;88.80;;;;;;5012005;28;20356;-74
2021/09/30 12:40:06;;;;;;;0.63;0.63;;;23.60;85.80;;;;;;5012852;28;20113;-74
2021/09/30 12:42:33;;;;;;;4.68;0.80;;;23.60;88.60;;;;;;5012494;28;20132;-74
2021/09/30 12:44:59;;;;;;;0.40;0.40;;;23.60;86.10;;;;;;5012768;28;20017;-74
2021/09/30 12:47:34;;;;;;;0.75;0.75;;;23.70;85.90;;;;;;5013036;28;20742;-74
2021/09/30 12:50:08;;;;;;;0.73;0.60;;;23.60;85.40;;;;;;5012828;28;20034;-74
2021/09/30 12:52:35;;;;;;;0.88;0.60;;;23.60;86.90;;;;;;5012597;28;20030;-74
2021/09/30 12:55:23;;;;;;;0.57;0.57;;;23.60;85.40;;;;;;5012132;28;20499;-74
2021/09/30 12:57:49;;;;;;;1.92;0.50;;;23.60;87.70;;;;;;5011980;28;20387;-73
2021/09/30 13:00:18;;;;;;;1.52;0.75;;;23.70;84.30;;;;;;5012618;28;20022;-75
2021/09/30 13:02:48;;;;;;;0.63;0.50;;;23.60;86.50;;;;;;5011722;28;20057;-75
2021/09/30 13:05:15;;;;;;;0.80;0.80;;;23.60;88.10;;;;;;5012517;28;20100;-73
2021/09/30 13:07:58;;;;;;;0.65;0.65;;;23.60;87.60;;;;;;5011840;28;20113;-73
2021/09/30 13:10:34;;;;;;;0.60;0.60;;;23.60;85.30;;;;;;5011038;28;20069;-75
2021/09/30 13:13:15;;;;;;;0.60;0.60;;;23.50;84.80;;;;;;5012448;28;20029;-74
2021/09/30 13:15:44;;;;;;;0.50;0.50;;;23.60;88.40;;;;;;5010591;28;20053;-73
2021/09/30 13:18:16;;;;;;;2.50;0.77;;;23.60;87.00;;;;;;5012910;28;20104;-74
2021/09/30 13:21:02;;;;;;;5.75;0.95;;;23.60;85.80;;;;;;5012444;28;20172;-73
2021/09/30 13:23:28;;;;;;;0.73;0.73;;;23.60;87.50;;;;;;5009519;28;20504;-73
2021/09/30 13:25:54;;;;;;;0.50;0.50;;;23.50;85.20;;;;;;5000597;28;20076;-73
2021/09/30 13:28:20;;;;;;;0.63;0.50;;;23.50;86.60;;;;;;5000127;28;20034;-74
2021/09/30 13:30:46;;;;;;;0.60;0.60;;;23.50;86.40;;;;;;5002442;28;20033;-74
2021/09/30 13:33:13;;;;;;;1.27;0.80;;;23.60;88.90;;;;;;5003328;28;20029;-74
2021/09/30 13:35:40;;;;;;;0.60;0.60;;;23.60;87.00;;;;;;5010889;28;20018;-74
2021/09/30 13:38:06;;;;;;;1.25;0.88;;;23.60;88.20;;;;;;5011399;28;20123;-74
2021/09/30 13:40:32;;;;;;;4.70;0.68;;;23.60;88.20;;;;;;5011042;28;20635;-74
2021/09/30 13:42:58;;;;;;;0.70;0.70;;;23.70;86.60;;;;;;5011219;28;20061;-74
2021/09/30 13:45:24;;;;;;;2.05;0.50;;;23.70;85.80;;;;;;5026228;28;20045;-74
2021/09/30 13:47:51;;;;;;;0.47;0.47;;;23.70;85.90;;;;;;5010113;28;20030;-73
2021/09/30 13:50:23;;;;;;;0.70;0.63;;;23.70;85.10;;;;;;5011349;28;20021;-74
2021/09/30 13:52:51;;;;;;;0.88;0.43;;;23.70;83.40;;;;;;5025969;28;20025;-73
2021/09/30 13:55:18;;;;;;;1.25;0.60;;;23.70;85.50;;;;;;5019031;28;20033;-74
2021/09/30 13:57:45;;;;;;;0.80;0.65;;;23.70;86.20;;;;;;4999427;28;20020;-74
2021/09/30 14:00:13;;;;;;;0.40;0.40;;;23.80;86.20;;;;;;5000021;28;20023;-74
2021/09/30 14:02:40;;;;;;;0.90;0.60;;;23.90;88.00;;;;;;4998215;28;20381;-73
2021/09/30 14:05:09;;;;;;;1.75;0.52;;;23.80;83.50;;;;;;5016349;28;20033;-74
2021/09/30 14:07:35;;;;;;;1.33;0.63;;;23.90;84.30;;;;;;5000616;28;20127;-74
2021/09/30 14:10:04;;;;;;;0.80;0.80;;;23.80;83.40;;;;;;4997036;28;20033;-73
2021/09/30 14:12:31;;;;;;;0.50;0.50;;;23.80;81.70;;;;;;4999213;28;20022;-74
2021/09/30 14:14:58;;;;;;;0.95;0.90;;;23.80;83.20;;;;;;5000358;28;20038;-74
2021/09/30 14:17:23;;;;;;;0.25;0.25;;;23.90;84.30;;;;;;4999812;28;20319;-74
2021/09/30 14:19:49;;;;;;;1.00;0.70;;;23.80;83.40;;;;;;4998717;28;20124;-73
2021/09/30 14:22:15;;;;;;;3.30;0.73;;;23.90;84.60;;;;;;4993167;28;20045;-73
2021/09/30 14:24:41;;;;;;;0.65;0.60;;;23.90;84.10;;;;;;4992023;28;20045;-75
2021/09/30 14:27:06;;;;;;;0.70;0.70;;;24.00;85.60;;;;;;4992873;28;20042;-73
2021/09/30 14:29:33;;;;;;;0.70;0.70;;;23.90;85.40;;;;;;4994305;28;20034;-73
2021/09/30 14:31:59;;;;;;;2.38;0.77;;;23.90;84.20;;;;;;4992721;28;20101;-73
2021/09/30 14:34:25;;;;;;;0.57;0.50;;;23.90;82.10;;;;;;5003452;28;20025;-73
2021/09/30 14:36:51;;;;;;;2.63;0.60;;;23.90;83.00;;;;;;5012374;28;20014;-73
2021/09/30 14:39:17;;;;;;;0.95;0.60;;;23.90;83.20;;;;;;5012443;28;20105;-73
2021/09/30 14:41:43;;;;;;;1.67;0.80;;;23.90;85.50;;;;;;5012731;28;20026;-73
2021/09/30 14:44:09;;;;;;;1.63;1.10;;;23.80;84.60;;;;;;5028054;28;20030;-73
2021/09/30 14:46:35;;;;;;;2.05;0.70;;;23.80;85.60;;;;;;5012702;28;20022;-73
2021/09/30 14:49:01;;;;;;;1.05;0.70;;;23.80;84.70;;;;;;5011288;28;20030;-73
2021/09/30 14:51:26;;;;;;;0.75;0.68;;;23.80;85.60;;;;;;5012699;28;20033;-73
2021/09/30 14:53:52;;;;;;;0.50;0.50;;;23.80;85.10;;;;;;5012449;28;20030;-73
2021/09/30 14:56:18;;;;;;;0.55;0.55;;;23.70;85.50;;;;;;5011780;28;20034;-74
2021/09/30 14:58:44;;;;;;;1.60;0.77;;;23.70;87.30;;;;;;5013142;28;20026;-74
2021/09/30 15:01:11;;;;;;;1.27;0.50;;;23.70;86.10;;;;;;5013337;28;20030;-74
2021/09/30 15:03:36;;;;;;;0.77;0.77;;;23.70;85.70;;;;;;5013228;28;20441;-74
2021/09/30 15:06:09;;;;;;;0.50;0.50;;;23.70;87.50;;;;;;5028678;28;20050;-74
2021/09/30 15:08:35;;;;;;;0.70;0.70;;;23.70;85.00;;;;;;5013387;28;20026;-74
2021/09/30 15:11:00;;;;;;;1.25;1.15;;;23.60;82.80;;;;;;5012383;28;20018;-74
2021/09/30 15:13:26;;;;;;;1.13;0.75;;;23.50;83.50;;;;;;5011427;28;20025;-74
2021/09/30 15:15:52;;;;;;;0.40;0.40;;;23.50;85.90;;;;;;5012034;28;20104;-74
2021/09/30 15:18:38;;;;;;;0.40;0.30;;;23.50;85.70;;;;;;5010885;28;20040;-74
2021/09/30 15:23:53;;;;;;;0.45;0.45;;;23.40;84.90;;;;;;5011973;28;20100;-74
2021/09/30 15:26:20;;;;;;;0.50;0.50;;;23.40;86.30;;;;;;5010718;28;20026;-74
2021/09/30 15:28:46;;;;;;;0.47;0.47;;;23.30;85.30;;;;;;5027061;28;20084;-74
2021/09/30 15:31:12;;;;;;;1.20;0.50;;;23.20;84.90;;;;;;5011846;28;20022;-74
2021/09/30 15:33:38;;;;;;;2.83;0.50;;;23.20;86.60;;;;;;5011814;28;20136;-74
2021/09/30 15:36:04;;;;;;;0.40;0.40;;;23.20;86.70;;;;;;5012010;28;20021;-74
2021/09/30 15:38:30;;;;;;;0.63;0.60;;;23.20;87.40;;;;;;5011896;28;20029;-74
2021/09/30 15:40:57;;;;;;;0.68;0.68;;;23.20;87.60;;;;;;4996860;28;20100;-74
2021/09/30 15:43:24;;;;;;;1.05;0.50;;;23.20;88.20;;;;;;4992269;28;20030;-74
2021/09/30 15:45:51;;;;;;;0.68;0.40;;;23.20;86.90;;;;;;4992190;28;20145;-74
2021/09/30 15:48:17;;;;;;;0.50;0.50;;;23.10;86.60;;;;;;4991770;28;20034;-74
2021/09/30 15:50:43;;;;;;;1.13;0.65;;;23.10;86.80;;;;;;5010639;28;20029;-74
2021/09/30 15:53:08;;;;;;;1.95;0.57;;;23.10;87.00;;;;;;5011805;28;20034;-74
2021/09/30 15:55:34;;;;;;;0.40;0.40;;;23.10;87.60;;;;;;5012524;28;20022;-74
2021/09/30 15:58:00;;;;;;;0.73;0.60;;;23.00;86.00;;;;;;5012655;28;20428;-74
2021/09/30 16:00:25;;;;;;;0.50;0.50;;;23.00;86.70;;;;;;5011119;28;20113;-74
2021/09/30 16:02:51;;;;;;;0.60;0.60;;;22.90;87.60;;;;;;5025153;28;20530;-74